Time;durP1;ratioP1;P1;durP2;ratioP2;P2;SDS_P1;SDS_P2;PMS_P1;PMS_P2;Temp;Humidity;BMP_temperature;BMP_pressure;BME280_temperature;BME280_humidity;BME280_pressure;Samples;Min_cycle;Max_cycle;Signal;HPM_P1;HPM_P2
2023/08/27 00:02:13;;;;;;;12.05;4.10;;;;;;;13.32;100.00;100897.50;5071934;28;20472;-65
2023/08/27 00:04:40;;;;;;;15.13;4.32;;;;;;;13.21;100.00;100889.63;5072231;28;20463;-67
2023/08/27 00:07:05;;;;;;;11.10;4.03;;;;;;;13.10;100.00;100896.75;5073394;28;20028;-68
2023/08/27 00:09:30;;;;;;;12.90;4.50;;;;;;;13.00;100.00;100885.28;5075754;28;20039;-67
2023/08/27 00:11:56;;;;;;;12.43;4.13;;;;;;;12.91;100.00;100881.78;5076098;28;20025;-68
2023/08/27 00:14:21;;;;;;;14.95;4.70;;;;;;;12.90;100.00;100865.88;5075640;28;20060;-73
2023/08/27 00:16:46;;;;;;;14.20;4.90;;;;;;;12.81;100.00;100863.28;5075327;28;20458;-63
2023/08/27 00:19:12;;;;;;;15.10;4.70;;;;;;;12.86;100.00;100859.72;5075908;28;20071;-73
2023/08/27 00:21:37;;;;;;;16.15;5.00;;;;;;;12.93;100.00;100862.34;5075471;28;20063;-66
2023/08/27 00:24:04;;;;;;;15.70;5.07;;;;;;;13.02;100.00;100857.00;5075436;28;20036;-73
2023/08/27 00:26:29;;;;;;;15.25;5.35;;;;;;;13.15;100.00;100845.41;5075650;28;20039;-72
2023/08/27 00:28:55;;;;;;;16.67;5.30;;;;;;;13.13;100.00;100847.19;5075269;28;20032;-64
2023/08/27 00:31:21;;;;;;;13.93;5.00;;;;;;;13.14;100.00;100841.00;5075113;28;20037;-71
2023/08/27 00:33:46;;;;;;;14.77;5.07;;;;;;;13.15;100.00;100831.25;5075497;28;20037;-71
2023/08/27 00:36:11;;;;;;;15.20;5.05;;;;;;;13.27;100.00;100838.28;5075418;28;20115;-72
2023/08/27 00:38:37;;;;;;;14.43;4.80;;;;;;;12.99;100.00;100835.75;5075142;28;20063;-70
2023/08/27 00:41:02;;;;;;;15.10;4.88;;;;;;;13.11;100.00;100835.69;5075205;28;20067;-73
2023/08/27 00:43:28;;;;;;;15.23;5.05;;;;;;;13.07;100.00;100833.94;5075033;28;20028;-73
2023/08/27 00:45:54;;;;;;;14.75;5.13;;;;;;;13.06;100.00;100829.53;5075218;28;20104;-73
2023/08/27 00:48:19;;;;;;;14.95;4.93;;;;;;;12.96;100.00;100833.13;5075103;28;20037;-69
2023/08/27 00:50:45;;;;;;;14.80;4.97;;;;;;;12.87;100.00;100832.31;5074890;28;20032;-73
2023/08/27 00:53:11;;;;;;;13.90;4.88;;;;;;;12.86;100.00;100834.97;5075106;28;20036;-67
2023/08/27 00:55:37;;;;;;;13.52;4.95;;;;;;;12.82;100.00;100834.09;5074799;28;20383;-68
2023/08/27 00:58:03;;;;;;;15.30;5.38;;;;;;;12.92;100.00;100829.63;5074762;28;20023;-66
2023/08/27 01:00:29;;;;;;;14.68;5.43;;;;;;;12.95;100.00;100826.09;5074917;28;20055;-72
2023/08/27 01:02:54;;;;;;;15.90;5.80;;;;;;;12.98;100.00;100824.28;5075000;28;20463;-69
2023/08/27 01:05:23;;;;;;;16.77;5.70;;;;;;;12.97;100.00;100826.94;5074675;28;20112;-73
2023/08/27 01:07:53;;;;;;;15.77;5.53;;;;;;;12.78;100.00;100832.34;5074784;28;20033;-68
2023/08/27 01:10:37;;;;;;;14.57;5.25;;;;;;;12.80;100.00;100833.22;5074586;28;20025;-65
2023/08/27 01:13:04;;;;;;;14.35;5.10;;;;;;;12.72;100.00;100827.94;5071314;28;20027;-71
2023/08/27 01:15:30;;;;;;;14.30;5.18;;;;;;;12.77;100.00;100824.38;5074678;28;20059;-69
2023/08/27 01:17:59;;;;;;;13.52;5.07;;;;;;;12.71;100.00;100820.00;5074128;28;20048;-72
2023/08/27 01:20:25;;;;;;;14.98;5.28;;;;;;;12.70;100.00;100815.59;5074055;28;20078;-72
2023/08/27 01:22:50;;;;;;;16.52;5.50;;;;;;;12.59;100.00;100822.72;5074358;28;20364;-64
2023/08/27 01:25:25;;;;;;;14.68;5.28;;;;;;;12.51;100.00;100820.97;5074384;28;20039;-70
2023/08/27 01:28:02;;;;;;;16.92;5.60;;;;;;;12.49;100.00;100825.38;5074453;28;20465;-69
2023/08/27 01:30:36;;;;;;;16.45;5.45;;;;;;;12.44;100.00;100821.88;5070172;28;20025;-68
2023/08/27 01:33:08;;;;;;;14.50;5.18;;;;;;;12.27;100.00;100819.28;5070778;28;20025;-67
2023/08/27 01:35:34;;;;;;;14.52;5.10;;;;;;;12.34;100.00;100814.84;5074367;28;20040;-70
2023/08/27 01:38:00;;;;;;;15.85;5.40;;;;;;;12.32;100.00;100811.31;5074288;28;20029;-70
2023/08/27 01:40:28;;;;;;;16.30;5.25;;;;;;;12.35;100.00;100806.03;5073846;28;20039;-69
2023/08/27 01:42:54;;;;;;;14.90;5.40;;;;;;;12.31;100.00;100806.91;5073855;28;20032;-70
2023/08/27 01:45:19;;;;;;;14.27;5.40;;;;;;;12.46;100.00;100806.84;5074039;28;20031;-65
2023/08/27 01:47:45;;;;;;;17.33;5.80;;;;;;;12.48;100.00;100813.03;5073784;28;20116;-68
2023/08/27 01:50:10;;;;;;;16.33;5.95;;;;;;;12.52;100.00;100814.78;5073765;28;20059;-69
2023/08/27 01:52:36;;;;;;;16.48;5.32;;;;;;;12.54;100.00;100801.53;5072676;28;20040;-70
2023/08/27 01:55:05;;;;;;;15.38;5.60;;;;;;;12.56;100.00;100805.91;5073654;28;20391;-70
2023/08/27 01:57:30;;;;;;;15.80;5.38;;;;;;;12.55;100.00;100806.81;5070088;28;20035;-69
2023/08/27 01:59:55;;;;;;;14.52;4.97;;;;;;;12.48;100.00;100804.19;5073752;28;20032;-70
2023/08/27 02:02:21;;;;;;;15.77;5.38;;;;;;;12.38;100.00;100795.41;5073541;28;20043;-70
2023/08/27 02:04:46;;;;;;;12.02;4.70;;;;;;;12.36;100.00;100802.47;5073498;28;20036;-61
2023/08/27 02:07:12;;;;;;;15.45;5.10;;;;;;;12.44;100.00;100795.38;5072653;28;20028;-69
2023/08/27 02:09:37;;;;;;;13.43;4.68;;;;;;;12.32;100.00;100795.41;5073383;28;20024;-70
2023/08/27 02:12:04;;;;;;;12.77;4.70;;;;;;;12.28;100.00;100798.97;5073723;28;20482;-70
2023/08/27 02:14:29;;;;;;;14.43;4.70;;;;;;;12.16;100.00;100811.38;5073307;28;20031;-70
2023/08/27 02:16:54;;;;;;;12.90;4.70;;;;;;;12.15;100.00;100801.66;5072951;28;20049;-70
2023/08/27 02:19:21;;;;;;;13.52;4.82;;;;;;;12.20;100.00;100798.97;5073396;28;20098;-70
2023/08/27 02:21:46;;;;;;;15.60;5.40;;;;;;;12.24;100.00;100802.53;5073152;28;20036;-70
2023/08/27 02:24:11;;;;;;;16.40;5.43;;;;;;;12.18;100.00;100806.94;5073059;28;20056;-70
2023/08/27 02:26:37;;;;;;;15.98;5.50;;;;;;;12.18;100.00;100819.31;5073560;28;20033;-70
2023/08/27 02:29:02;;;;;;;16.35;5.63;;;;;;;12.18;100.00;100809.59;5073288;28;20514;-69
2023/08/27 02:31:28;;;;;;;18.65;5.65;;;;;;;12.14;100.00;100807.81;5072177;28;20498;-69
2023/08/27 02:33:53;;;;;;;16.65;5.95;;;;;;;12.17;100.00;100799.91;5073123;28;20029;-67
2023/08/27 02:36:18;;;;;;;17.02;6.07;;;;;;;12.20;100.00;100805.19;5072889;28;20033;-69
2023/08/27 02:38:44;;;;;;;18.30;6.68;;;;;;;12.20;100.00;100813.13;5071655;28;20024;-69
2023/08/27 02:41:09;;;;;;;18.08;6.70;;;;;;;12.22;100.00;100810.47;5073007;28;20039;-68
2023/08/27 02:43:34;;;;;;;18.17;6.60;;;;;;;12.27;100.00;100807.81;5072820;28;20466;-69
2023/08/27 02:46:00;;;;;;;18.63;6.60;;;;;;;12.27;100.00;100797.19;5073145;28;20043;-69
2023/08/27 02:48:25;;;;;;;19.42;6.90;;;;;;;12.34;100.00;100806.91;5072708;28;20029;-69
2023/08/27 02:50:50;;;;;;;19.30;7.25;;;;;;;12.32;100.00;100813.97;5072775;28;20459;-68
2023/08/27 02:53:16;;;;;;;18.58;7.30;;;;;;;12.39;100.00;100805.09;5072935;28;20467;-70
2023/08/27 02:55:41;;;;;;;19.98;7.63;;;;;;;12.36;100.00;100819.28;5072580;28;20171;-68
2023/08/27 02:58:06;;;;;;;19.27;7.47;;;;;;;12.37;100.00;100822.78;5072718;28;20032;-70
2023/08/27 03:00:32;;;;;;;18.77;7.47;;;;;;;12.37;100.00;100813.06;5072746;28;20032;-69
2023/08/27 03:02:57;;;;;;;21.63;7.97;;;;;;;12.37;100.00;100807.75;5068577;28;20027;-71
2023/08/27 03:05:23;;;;;;;20.70;7.97;;;;;;;12.45;100.00;100813.06;5072583;28;20078;-68
2023/08/27 03:07:48;;;;;;;20.83;8.07;;;;;;;12.44;100.00;100816.59;5071597;28;20455;-69
2023/08/27 03:10:14;;;;;;;20.42;8.40;;;;;;;12.51;100.00;100823.63;5072553;28;20099;-70
2023/08/27 03:12:39;;;;;;;20.85;8.15;;;;;;;12.47;100.00;100811.25;5072508;28;20115;-69
2023/08/27 03:15:05;;;;;;;19.88;8.50;;;;;;;12.49;100.00;100806.81;5072609;28;20115;-70
2023/08/27 03:17:30;;;;;;;19.33;8.20;;;;;;;12.49;100.00;100814.78;5072431;28;20090;-69
2023/08/27 03:19:56;;;;;;;20.38;8.32;;;;;;;12.41;100.00;100815.69;5072559;28;20547;-69
2023/08/27 03:22:21;;;;;;;18.98;7.72;;;;;;;12.37;100.00;100828.09;5072293;28;20464;-73
2023/08/27 03:24:46;;;;;;;19.80;7.75;;;;;;;12.38;100.00;100819.25;5072363;28;20082;-72
2023/08/27 03:27:12;;;;;;;19.25;7.43;;;;;;;12.34;100.00;100822.81;5072499;28;20028;-74
2023/08/27 03:29:38;;;;;;;19.60;7.35;;;;;;;12.39;100.00;100834.25;5072369;28;20056;-70
2023/08/27 03:32:04;;;;;;;20.95;8.35;;;;;;;12.38;100.00;100832.50;5072317;28;20025;-64
2023/08/27 03:34:29;;;;;;;26.55;8.80;;;;;;;12.40;100.00;100830.72;5072476;28;20032;-76
2023/08/27 03:36:54;;;;;;;20.42;8.10;;;;;;;12.39;100.00;100813.06;5072525;28;20024;-74
2023/08/27 03:39:20;;;;;;;21.30;8.30;;;;;;;12.42;100.00;100807.75;5072171;28;20032;-73
2023/08/27 03:41:45;;;;;;;21.35;7.82;;;;;;;12.38;100.00;100811.31;5073216;28;20040;-74
2023/08/27 03:44:10;;;;;;;20.02;7.97;;;;;;;12.40;100.00;100806.88;5076196;28;20104;-70
2023/08/27 03:46:36;;;;;;;21.02;7.78;;;;;;;12.33;100.00;100794.53;5076313;28;20498;-72
2023/08/27 03:49:02;;;;;;;21.63;8.30;;;;;;;12.52;100.00;100790.03;5076382;28;20111;-66
2023/08/27 03:51:28;;;;;;;20.38;8.27;;;;;;;12.53;100.00;100786.50;5076288;28;20028;-72
2023/08/27 03:53:58;;;;;;;21.73;8.73;;;;;;;12.46;100.00;100793.59;5075945;28;20040;-70
2023/08/27 03:56:23;;;;;;;22.58;9.05;;;;;;;12.53;100.00;100794.44;5076144;28;20024;-69
2023/08/27 03:58:49;;;;;;;20.65;8.65;;;;;;;12.53;100.00;100784.72;5075784;28;20482;-70
2023/08/27 04:01:15;;;;;;;23.10;8.65;;;;;;;12.62;100.00;100780.28;5075686;28;20036;-70
2023/08/27 04:03:40;;;;;;;20.10;8.20;;;;;;;12.61;100.00;100774.09;5075957;28;20504;-71
2023/08/27 04:06:07;;;;;;;21.05;8.45;;;;;;;12.70;100.00;100783.78;5075808;28;20477;-70
2023/08/27 04:08:32;;;;;;;23.80;9.00;;;;;;;12.79;100.00;100778.41;5075728;28;20105;-70
2023/08/27 04:10:58;;;;;;;21.20;8.55;;;;;;;12.61;100.00;100789.09;5075828;28;20066;-70
2023/08/27 04:13:23;;;;;;;19.92;8.15;;;;;;;12.51;100.00;100781.19;5075636;28;20037;-68
2023/08/27 04:15:58;;;;;;;21.67;8.60;;;;;;;12.65;100.00;100780.25;5075627;28;20527;-70
2023/08/27 04:18:24;;;;;;;21.08;8.48;;;;;;;12.60;100.00;100782.06;5075452;28;20051;-69
2023/08/27 04:20:49;;;;;;;23.38;9.20;;;;;;;12.67;100.00;100781.13;5075421;28;20040;-70
2023/08/27 04:23:15;;;;;;;21.65;9.15;;;;;;;12.67;100.00;100786.44;5075428;28;20502;-69
2023/08/27 04:25:43;;;;;;;21.40;9.05;;;;;;;12.68;100.00;100788.19;5075616;28;20082;-71
2023/08/27 04:28:08;;;;;;;22.30;8.98;;;;;;;12.73;100.00;100791.72;5075332;28;20028;-71
2023/08/27 04:30:34;;;;;;;21.58;9.35;;;;;;;12.64;100.00;100790.00;5075198;28;20028;-72
2023/08/27 04:32:59;;;;;;;20.92;8.55;;;;;;;12.68;100.00;100783.78;5075543;28;20540;-71
2023/08/27 04:35:25;;;;;;;21.90;8.48;;;;;;;12.73;100.00;100781.09;5075144;28;20029;-71
2023/08/27 04:37:50;;;;;;;21.25;8.77;;;;;;;12.78;100.00;100779.28;5074143;28;20117;-69
2023/08/27 04:40:15;;;;;;;22.08;8.30;;;;;;;12.63;100.00;100774.09;5073986;28;20072;-71
2023/08/27 04:42:42;;;;;;;19.55;7.50;;;;;;;12.53;100.00;100782.06;5073873;28;20040;-68
2023/08/27 04:45:09;;;;;;;21.23;8.48;;;;;;;12.59;100.00;100789.13;5075525;28;20107;-72
2023/08/27 04:47:34;;;;;;;21.77;8.18;;;;;;;12.56;100.00;100783.81;5074946;28;20028;-69
2023/08/27 04:49:59;;;;;;;20.13;8.15;;;;;;;12.54;100.00;100791.78;5075027;28;20490;-70
2023/08/27 04:52:25;;;;;;;21.27;8.05;;;;;;;12.59;100.00;100790.91;5075081;28;20028;-69
2023/08/27 04:54:50;;;;;;;21.58;7.93;;;;;;;12.60;100.00;100790.88;5073865;28;20064;-70
2023/08/27 04:57:16;;;;;;;21.92;8.23;;;;;;;12.64;100.00;100802.34;5074894;28;20036;-70
2023/08/27 04:59:41;;;;;;;20.35;7.55;;;;;;;12.59;100.00;100806.81;5075203;28;20066;-70
2023/08/27 05:02:07;;;;;;;19.55;7.50;;;;;;;12.63;100.00;100811.22;5074758;28;20029;-69
2023/08/27 05:04:32;;;;;;;18.85;7.53;;;;;;;12.43;100.00;100809.50;5075042;28;20036;-69
2023/08/27 05:06:58;;;;;;;21.38;7.80;;;;;;;12.48;100.00;100812.13;5074749;28;20032;-70
2023/08/27 05:09:24;;;;;;;20.63;7.90;;;;;;;12.43;100.00;100817.47;5074683;28;20082;-69
2023/08/27 05:11:51;;;;;;;20.25;7.93;;;;;;;12.49;100.00;100817.44;5074796;28;20044;-70
2023/08/27 05:14:16;;;;;;;20.73;8.23;;;;;;;12.58;100.00;100820.94;5074763;28;20055;-69
2023/08/27 05:16:42;;;;;;;20.15;7.80;;;;;;;12.62;100.00;100809.44;5074535;28;20045;-69
2023/08/27 05:19:07;;;;;;;21.35;8.23;;;;;;;12.67;100.00;100810.31;5074305;28;20567;-69
2023/08/27 05:21:32;;;;;;;21.52;8.25;;;;;;;12.67;100.00;100811.19;5074545;28;20558;-69
2023/08/27 05:23:58;;;;;;;22.58;8.73;;;;;;;12.69;100.00;100816.47;5074508;28;20039;-67
2023/08/27 05:26:23;;;;;;;21.75;8.50;;;;;;;12.75;100.00;100811.13;5074495;28;20033;-68
2023/08/27 05:28:48;;;;;;;20.65;8.63;;;;;;;12.78;100.00;100811.13;5074239;28;20028;-68
2023/08/27 05:31:14;;;;;;;21.60;8.65;;;;;;;12.75;100.00;100810.25;5074090;28;20500;-68
2023/08/27 05:33:39;;;;;;;21.83;8.93;;;;;;;12.78;100.00;100802.28;5074313;28;20357;-67
2023/08/27 05:36:05;;;;;;;21.30;8.30;;;;;;;12.61;100.00;100800.59;5074072;28;20032;-67
2023/08/27 05:38:30;;;;;;;21.42;8.75;;;;;;;12.54;100.00;100809.47;5072807;28;20028;-67
2023/08/27 05:40:55;;;;;;;21.45;7.90;;;;;;;12.51;100.00;100807.72;5074151;28;20024;-68
2023/08/27 05:43:21;;;;;;;21.80;8.88;;;;;;;12.48;100.00;100805.09;5073874;28;20063;-67
2023/08/27 05:45:46;;;;;;;22.00;8.85;;;;;;;12.47;100.00;100808.63;5073851;28;20103;-68
2023/08/27 05:48:11;;;;;;;22.70;9.30;;;;;;;12.47;100.00;100811.25;5074066;28;20028;-67
2023/08/27 05:50:37;;;;;;;22.10;9.70;;;;;;;12.46;100.00;100812.13;5073764;28;20032;-67
2023/08/27 05:53:03;;;;;;;22.38;9.55;;;;;;;12.53;100.00;100816.53;5074057;28;20028;-67
2023/08/27 05:55:29;;;;;;;22.50;10.20;;;;;;;12.52;100.00;100803.28;5073814;28;20040;-67
2023/08/27 05:57:54;;;;;;;24.02;10.73;;;;;;;12.57;100.00;100796.22;5073874;28;20388;-68
2023/08/27 06:00:20;;;;;;;22.98;10.13;;;;;;;12.59;100.00;100804.16;5074050;28;20024;-68
2023/08/27 06:02:45;;;;;;;24.15;10.10;;;;;;;12.52;100.00;100798.88;5073700;28;20464;-68
2023/08/27 06:05:11;;;;;;;24.40;10.60;;;;;;;12.62;100.00;100802.34;5073361;28;20468;-67
2023/08/27 06:07:37;;;;;;;23.27;10.20;;;;;;;12.63;100.00;100795.31;5073552;28;20033;-68
2023/08/27 06:10:02;;;;;;;22.33;9.90;;;;;;;12.67;100.00;100791.75;5073363;28;20036;-67
2023/08/27 06:12:28;;;;;;;24.02;9.57;;;;;;;12.65;100.00;100797.03;5073457;28;20092;-67
2023/08/27 06:14:53;;;;;;;21.90;9.70;;;;;;;12.62;100.00;100790.88;5073487;28;20056;-66
2023/08/27 06:17:19;;;;;;;21.02;9.27;;;;;;;12.53;100.00;100786.50;5072952;28;20484;-68
2023/08/27 06:19:44;;;;;;;21.10;9.35;;;;;;;12.48;100.00;100781.22;5073241;28;20036;-68
2023/08/27 06:22:09;;;;;;;21.08;8.98;;;;;;;12.43;100.00;100788.28;5073328;28;20179;-67
2023/08/27 06:24:34;;;;;;;22.13;9.23;;;;;;;12.41;100.00;100784.78;5070370;28;20440;-67
2023/08/27 06:27:00;;;;;;;21.42;8.93;;;;;;;12.45;100.00;100783.88;5072983;28;20105;-67
2023/08/27 06:29:25;;;;;;;21.65;8.77;;;;;;;12.46;100.00;100771.50;5073325;28;20032;-68
2023/08/27 06:31:50;;;;;;;21.58;8.95;;;;;;;12.49;100.00;100782.09;5072967;28;20036;-68
2023/08/27 06:34:16;;;;;;;21.77;9.05;;;;;;;12.50;100.00;100779.44;5073493;28;20024;-67
2023/08/27 06:36:42;;;;;;;23.10;9.45;;;;;;;12.51;100.00;100778.56;5073220;28;20107;-67
2023/08/27 06:39:08;;;;;;;23.33;9.32;;;;;;;12.53;100.00;100776.75;5072929;28;20038;-67
2023/08/27 06:41:33;;;;;;;22.35;9.48;;;;;;;12.56;100.00;100778.53;5071712;28;20025;-66
2023/08/27 06:43:58;;;;;;;22.50;9.30;;;;;;;12.59;100.00;100782.94;5072880;28;20534;-65
2023/08/27 06:46:24;;;;;;;21.90;8.88;;;;;;;12.65;100.00;100777.59;5072731;28;20039;-67
2023/08/27 06:48:49;;;;;;;21.52;9.27;;;;;;;12.66;100.00;100782.88;5072976;28;20037;-67
2023/08/27 06:51:14;;;;;;;22.77;9.82;;;;;;;12.72;100.00;100776.69;5072721;28;20108;-67
2023/08/27 06:53:40;;;;;;;22.77;9.57;;;;;;;12.73;100.00;100784.63;5072732;28;20052;-66
2023/08/27 06:56:05;;;;;;;22.08;9.65;;;;;;;12.74;100.00;100785.50;5072961;28;20067;-65
2023/08/27 06:58:30;;;;;;;22.55;9.68;;;;;;;12.84;100.00;100784.56;5072662;28;20024;-66
2023/08/27 07:00:56;;;;;;;22.30;9.98;;;;;;;12.88;100.00;100791.59;5072385;28;20467;-68
2023/08/27 07:03:22;;;;;;;23.58;9.70;;;;;;;12.88;100.00;100788.94;5073169;28;20094;-65
2023/08/27 07:05:48;;;;;;;22.73;9.10;;;;;;;12.96;100.00;100790.66;5072530;28;20103;-67
2023/08/27 07:08:14;;;;;;;22.05;9.48;;;;;;;12.98;100.00;100797.75;5066191;28;20108;-67
2023/08/27 07:10:39;;;;;;;25.15;9.80;;;;;;;13.03;100.00;100795.06;5067131;28;20029;-66
2023/08/27 07:13:05;;;;;;;21.27;9.18;;;;;;;13.10;100.00;100801.22;5068126;28;20025;-68
2023/08/27 07:15:30;;;;;;;22.00;9.23;;;;;;;13.10;100.00;100794.13;5072381;28;20036;-66
2023/08/27 07:17:56;;;;;;;21.83;9.52;;;;;;;13.20;100.00;100798.47;5071618;28;20055;-62
2023/08/27 07:20:23;;;;;;;23.10;9.88;;;;;;;13.25;100.00;100791.38;5072137;28;20115;-66
2023/08/27 07:22:48;;;;;;;22.10;9.95;;;;;;;13.32;100.00;100796.63;5072494;28;20452;-61
2023/08/27 07:25:14;;;;;;;21.83;9.70;;;;;;;13.43;100.00;100798.31;5072494;28;20071;-61
2023/08/27 07:27:39;;;;;;;22.13;9.43;;;;;;;13.44;100.00;100788.63;5072533;28;20032;-61
2023/08/27 07:30:06;;;;;;;22.90;11.07;;;;;;;13.46;100.00;100784.16;5072331;28;20503;-65
2023/08/27 07:32:31;;;;;;;21.65;9.27;;;;;;;13.42;100.00;100779.75;5072266;28;20074;-63
2023/08/27 07:34:57;;;;;;;20.70;8.73;;;;;;;13.50;100.00;100788.56;5072287;28;20437;-62
2023/08/27 07:37:22;;;;;;;22.92;9.38;;;;;;;13.52;100.00;100793.84;5071933;28;20369;-62
2023/08/27 07:39:47;;;;;;;22.83;8.63;;;;;;;13.62;100.00;100792.00;5072008;28;20506;-62
2023/08/27 07:42:13;;;;;;;20.85;8.60;;;;;;;13.90;100.00;100795.25;5071968;28;20032;-62
2023/08/27 07:44:38;;;;;;;21.13;8.52;;;;;;;13.85;100.00;100811.25;5072468;28;20031;-62
2023/08/27 07:47:04;;;;;;;21.10;9.18;;;;;;;14.01;100.00;100800.44;5071980;28;20387;-62
2023/08/27 07:49:29;;;;;;;22.02;9.13;;;;;;;14.11;100.00;100805.66;5071985;28;20450;-64
2023/08/27 07:51:54;;;;;;;21.20;8.95;;;;;;;14.14;100.00;100802.09;5072080;28;20032;-62
2023/08/27 07:54:20;;;;;;;22.08;9.77;;;;;;;14.14;100.00;100799.44;5071960;28;20526;-61
2023/08/27 07:56:45;;;;;;;21.17;9.60;;;;;;;14.30;100.00;100798.38;5071938;28;20031;-62
2023/08/27 07:59:11;;;;;;;21.23;9.63;;;;;;;14.36;100.00;100797.41;5072213;28;20056;-69
2023/08/27 08:01:36;;;;;;;21.27;9.27;;;;;;;14.43;100.00;100800.84;5071734;28;20032;-66
2023/08/27 08:04:03;;;;;;;21.25;9.38;;;;;;;14.46;100.00;100793.75;5072075;28;20033;-69
2023/08/27 08:06:28;;;;;;;20.60;9.38;;;;;;;14.34;100.00;100788.56;5071928;28;20038;-68
2023/08/27 08:08:53;;;;;;;20.75;9.30;;;;;;;14.32;100.00;100787.72;5071876;28;20025;-68
2023/08/27 08:11:19;;;;;;;21.00;9.07;;;;;;;14.45;100.00;100783.13;5072402;28;20072;-68
2023/08/27 08:13:45;;;;;;;21.42;8.85;;;;;;;14.77;100.00;100781.84;5071877;28;20029;-68
2023/08/27 08:16:10;;;;;;;20.30;8.23;;;;;;;15.10;100.00;100783.13;5071865;28;20048;-68
2023/08/27 08:18:36;;;;;;;20.27;8.60;;;;;;;15.04;100.00;100777.88;5071921;28;20106;-68
2023/08/27 08:21:02;;;;;;;19.67;8.00;;;;;;;14.96;100.00;100780.66;5071887;28;20032;-69
2023/08/27 08:23:27;;;;;;;19.85;7.60;;;;;;;14.87;100.00;100774.59;5070594;28;20403;-69
2023/08/27 08:25:52;;;;;;;19.67;7.93;;;;;;;14.77;100.00;100772.06;5071985;28;20020;-69
2023/08/27 08:28:18;;;;;;;20.42;7.85;;;;;;;14.62;100.00;100783.81;5071929;28;20429;-68
2023/08/27 08:30:47;;;;;;;20.10;7.70;;;;;;;14.58;100.00;100773.22;5075325;28;20518;-69
2023/08/27 08:33:14;;;;;;;20.73;7.07;;;;;;;14.75;100.00;100780.97;5075542;28;20467;-69
2023/08/27 08:35:39;;;;;;;18.63;6.75;;;;;;;14.72;100.00;100779.25;5075303;28;20069;-69
2023/08/27 08:38:04;;;;;;;19.13;7.22;;;;;;;14.92;100.00;100784.28;5075305;28;20103;-68
2023/08/27 08:40:34;;;;;;;18.30;6.70;;;;;;;15.05;100.00;100774.31;5075493;28;20040;-70
2023/08/27 08:42:59;;;;;;;18.30;6.25;;;;;;;15.02;100.00;100778.84;5074993;28;20055;-70
2023/08/27 08:45:27;;;;;;;16.23;5.55;;;;;;;15.06;100.00;100772.56;5075116;28;20463;-70
2023/08/27 08:47:54;;;;;;;18.17;6.20;;;;;;;15.18;100.00;100771.50;5075296;28;20352;-70
2023/08/27 08:50:21;;;;;;;17.88;5.80;;;;;;;15.66;100.00;100766.25;5075062;28;20494;-69
2023/08/27 08:52:49;;;;;;;18.15;5.70;;;;;;;16.10;100.00;100775.19;5074959;28;20033;-70
2023/08/27 08:55:16;;;;;;;15.23;4.72;;;;;;;16.37;100.00;100765.78;5075092;28;20020;-70
2023/08/27 08:58:10;;;;;;;14.90;4.75;;;;;;;16.72;100.00;100756.13;5074840;28;20431;-70
2023/08/27 09:00:36;;;;;;;16.23;4.60;;;;;;;17.28;100.00;100743.28;5071084;28;20064;-70
2023/08/27 09:03:03;;;;;;;16.05;4.10;;;;;;;16.76;100.00;100740.03;5069523;28;20075;-70
2023/08/27 09:05:33;;;;;;;13.70;4.50;;;;;;;16.84;100.00;100743.41;5074953;28;20059;-70
2023/08/27 09:07:59;;;;;;;14.50;3.45;;;;;;;16.72;100.00;100734.78;5074831;28;20033;-70
2023/08/27 09:10:25;;;;;;;15.80;3.70;;;;;;;16.24;100.00;100731.38;5074645;28;20027;-70
2023/08/27 09:12:55;;;;;;;13.13;3.55;;;;;;;16.07;100.00;100734.41;5074711;28;20107;-70
2023/08/27 09:15:21;;;;;;;13.13;3.58;;;;;;;16.63;100.00;100734.09;5074896;28;20032;-70
2023/08/27 09:17:47;;;;;;;13.98;3.85;;;;;;;16.61;100.00;100725.25;5074319;28;20457;-70
2023/08/27 09:20:12;;;;;;;12.15;3.50;;;;;;;16.76;100.00;100718.69;5074641;28;20035;-70
2023/08/27 09:22:38;;;;;;;11.95;3.45;;;;;;;17.51;100.00;100721.34;5074656;28;20033;-70
2023/08/27 09:25:05;;;;;;;7.78;2.90;;;;;;;17.85;100.00;100718.59;5074297;28;20120;-70
2023/08/27 09:27:31;;;;;;;9.25;2.92;;;;;;;17.92;100.00;100708.66;5074389;28;20024;-64
2023/08/27 09:30:00;;;;;;;12.68;3.22;;;;;;;17.93;100.00;100702.41;5074457;28;20154;-69
2023/08/27 09:32:26;;;;;;;12.30;3.03;;;;;;;17.70;100.00;100705.69;5074222;28;20036;-69
2023/08/27 09:35:03;;;;;;;10.77;3.00;;;;;;;17.73;100.00;100703.78;5074195;28;20028;-63
2023/08/27 09:37:38;;;;;;;12.75;3.00;;;;;;;17.96;100.00;100688.06;5076344;28;20023;-66
2023/08/27 09:40:07;;;;;;;13.90;3.20;;;;;;;17.88;100.00;100689.13;5073504;28;20017;-68
2023/08/27 09:42:33;;;;;;;14.55;3.53;;;;;;;17.88;100.00;100693.56;5073770;28;20098;-63
2023/08/27 09:44:58;;;;;;;11.55;3.00;;;;;;;18.31;100.00;100700.38;5073861;28;20033;-67
2023/08/27 09:47:32;;;;;;;13.25;2.83;;;;;;;18.94;100.00;100677.00;5072672;28;20031;-67
2023/08/27 09:49:58;;;;;;;11.70;3.10;;;;;;;19.87;100.00;100691.75;5073826;28;20025;-63
2023/08/27 09:52:24;;;;;;;11.88;3.20;;;;;;;20.09;100.00;100691.81;5074037;28;20422;-68
2023/08/27 09:54:50;;;;;;;13.07;3.35;;;;;;;20.35;100.00;100694.34;5074196;28;20024;-69
2023/08/27 09:57:18;;;;;;;13.35;3.47;;;;;;;20.95;100.00;100682.19;5073695;28;20063;-69
2023/08/27 09:59:43;;;;;;;14.98;3.10;;;;;;;21.71;100.00;100685.25;5073631;28;20086;-67
2023/08/27 10:02:12;;;;;;;11.85;2.90;;;;;;;21.87;100.00;100683.63;5073720;28;20032;-65
2023/08/27 10:04:48;;;;;;;10.88;2.70;;;;;;;22.06;100.00;100691.72;5073451;28;20500;-65
2023/08/27 10:07:14;;;;;;;11.05;2.63;;;;;;;22.17;100.00;100690.34;5073474;28;20024;-67
2023/08/27 10:09:39;;;;;;;9.85;2.70;;;;;;;21.98;100.00;100693.03;5073616;28;20059;-66
2023/08/27 10:12:07;;;;;;;8.38;2.78;;;;;;;22.07;100.00;100688.06;5073388;28;20056;-67
2023/08/27 10:14:33;;;;;;;9.10;2.60;;;;;;;22.26;100.00;100690.78;5073455;28;20082;-63
2023/08/27 10:16:59;;;;;;;10.10;2.58;;;;;;;22.37;100.00;100692.16;5073425;28;20055;-68
2023/08/27 10:19:25;;;;;;;11.10;2.60;;;;;;;22.76;100.00;100685.75;5073078;28;20052;-68
2023/08/27 10:21:50;;;;;;;9.60;2.47;;;;;;;23.03;100.00;100696.13;5073207;28;20123;-68
2023/08/27 10:24:16;;;;;;;13.02;2.70;;;;;;;22.70;100.00;100681.56;5073345;28;20035;-68
2023/08/27 10:26:46;;;;;;;9.88;2.42;;;;;;;23.32;100.00;100694.69;5073193;28;20060;-68
2023/08/27 10:29:12;;;;;;;10.05;2.50;;;;;;;23.84;100.00;100683.00;5073065;28;20115;-68
2023/08/27 10:31:39;;;;;;;10.15;2.40;;;;;;;24.17;100.00;100684.81;5072126;28;20060;-65
2023/08/27 10:34:06;;;;;;;9.15;2.40;;;;;;;22.13;100.00;100686.91;5073268;28;20380;-69
2023/08/27 10:36:36;;;;;;;6.82;2.20;;;;;;;21.37;100.00;100686.69;5073000;28;20032;-65
2023/08/27 10:39:07;;;;;;;8.23;2.30;;;;;;;20.72;100.00;100674.16;5073021;28;20501;-67
2023/08/27 10:41:35;;;;;;;9.95;2.30;;;;;;;20.12;100.00;100689.88;5073021;28;20044;-66
2023/08/27 10:44:02;;;;;;;10.05;2.60;;;;;;;19.55;100.00;100686.56;5072901;28;20043;-64
2023/08/27 10:46:27;;;;;;;10.18;2.55;;;;;;;19.36;100.00;100693.50;5073112;28;20063;-70
2023/08/27 10:48:54;;;;;;;9.00;2.38;;;;;;;20.63;100.00;100687.03;5073303;28;20052;-69
2023/08/27 10:51:21;;;;;;;6.15;2.33;;;;;;;21.49;100.00;100696.91;5068155;28;20032;-68
2023/08/27 10:53:49;;;;;;;7.65;2.45;;;;;;;22.90;100.00;100701.25;5072788;28;20077;-70
2023/08/27 10:56:36;;;;;;;11.07;2.50;;;;;;;24.03;100.00;100701.78;5072914;28;20024;-70
2023/08/27 10:59:07;;;;;;;9.57;2.15;;;;;;;24.06;86.79;100708.81;5070609;28;20028;-67
2023/08/27 11:01:59;;;;;;;10.60;2.30;;;;;;;23.40;100.00;100688.88;5072556;28;20029;-70
2023/08/27 11:04:43;;;;;;;8.00;2.30;;;;;;;24.47;100.00;100697.59;5069544;28;20028;-70
2023/08/27 11:07:14;;;;;;;8.57;2.30;;;;;;;24.96;79.65;100697.50;5072763;28;20032;-71